Terminal Aerodrome Forecast
Issued by NWS Grand Junction, CO

Home | Current Version | Previous Version | Text Only | Print | Product List | Glossary On
Versions: 1 2 3 4 5 6 7 8 9 10 11 12 13 14 15 16 17 18 19 20 21 22 23 24 25 26 27 28 29 30 31 32 33 34 35 36 37 38 39 40 41 42 43 44 45 46
000
FTUS45 KGJT 231138
TAFGJT
TAF
KGJT 231138Z 2312/2412 12011KT P6SM VCSH OVC050
     FM231400 06006KT P6SM -SN OVC035 WS020/21030KT
     FM231700 17014KT P6SM -RASN BKN035
     FM231900 21020G33KT 5SM -RA OVC030
     FM240100 22011KT P6SM VCSH BKN050
     FM240600 16006KT P6SM OVC040=

USA.gov is the U.S. government's official web portal to all federal, state and local government web resources and services.